Etusivu
METAR-TAF:

METAR-TAF

Lentoasemat :

Midland, Texas, Yhdysvallat

Leveyspiiri: 32-02-11N, Pituuspiiri: 102-06-03W, korkeus merenpinnasta: 854 m

Tämänhetkinen sää

Tämä raportti tehtiin 34 minuuttia sitten, kello 22.15 UTC
Tuuli 23 kn idästä puuskistuen 30 kn:hen
Lämpötila 30°C
Kosteus 43%
Ilmanpaine 1018 hPa
Näkyvyys: 4.0 km
Hajanaisia pilviä 800 ft:n korkeudessa
Hajanaisia pilviä 1300 ft:n korkeudessa
Hajanaisia pilviä 9500 ft:n korkeudessa
usvaa

METAR: KMDD 172215Z AUTO 09023G30KT 2 1/2SM HZ SCT008 SCT013 SCT095 30/16 A3006 RMK AO2 LTG DSNT N AND NE T02960164

Aika: 17:49 (22:49 UTC)


TAF: puuttuu

Säähavainnot ja -ennusteet yli 4000 lentoasemalta (METAR- ja TAF-raportit).

Käytössä olevat sääasemat on merkitty karttaan keltaisilla ja punaisilla pisteillä.

Aseta hiiri pisteen päälle nähdäksesi sääaseman nimen.

Klikkaa sitten nähdäksesi säähavainnot ja -ennusteet.

Kartan vaihtaminen: klikkaa mustalla rastilla varustettuja vihreitä pisteitä, niin voit zoomata sisään; viivalla varustettua vihreää pistettä, niin voit zoomata ulos tai vihreitä nuolia, niin pääset viereisille kartoille.


METAR-TAF: